Aransas Pass — WDF5061 — position and weather

sailwx.info

Track history (hours):
 
Tides and Currents Weather Stations Pressure Air Temp Water Temp Dewpoint Dewpoint Depression Visibility Wind Speed Wind Dir Waves Ship Positions

Aransas Pass

Owner: Higman Barge Lines, Inc., Orange, TX. More information available from US FCC via Universal Licensing System and Coast Guard Vessel Documentation Center.

Last reported at 2015-Aug-29 11:32 UTC. Time now 2015-Aug-30 01:37 UTC.
Position N 29°57' W 090°23'.

Length 26 m; draft 3 m.

Type: Towing. MMSI: 367458930.

Date/timePositionNaut miles runAvg speedWind from/ knotsBaromVisibWave heightAir tempDewpointWater temp
2015-Aug-29 11:32N 29°57' W 090°23'0 0.0
2015-Aug-29 10:33N 29°57' W 090°23'0 0.0
2015-Aug-29 08:07N 29°57' W 090°23'  
2015-Aug-26 19:30N 29°55' W 090°08'4 4.6
2015-Aug-26 18:32N 29°57' W 090°04'5 0.7
2015-Aug-26 11:29N 29°54' W 089°59'0 0.0
2015-Aug-26 09:16N 29°54' W 089°59'0 0.0
2015-Aug-26 08:20N 29°54' W 089°59'0 0.0
2015-Aug-26 06:33N 29°54' W 089°59'0 0.0
2015-Aug-26 05:17N 29°54' W 089°59'34 2.2
2015-Aug-25 13:33N 29°34' W 090°30'5 4.9
2015-Aug-25 12:33N 29°35' W 090°36'5 4.9
2015-Aug-25 11:33N 29°36' W 090°41'3 3.1
2015-Aug-25 10:34N 29°34' W 090°43'2 1.5
2015-Aug-25 09:33N 29°33' W 090°45'0 0.3
2015-Aug-25 08:33N 29°33' W 090°45'2 2.0
2015-Aug-25 07:33N 29°32' W 090°47'6 5.6
2015-Aug-25 06:32N 29°33' W 090°54'  
2015-Aug-21 22:31N 29°30' W 094°53'7 7.0
2015-Aug-21 21:33N 29°36' W 094°57'7 6.8
2015-Aug-21 20:33N 29°42' W 095°01'5 4.8
2015-Aug-21 19:25N 29°45' W 095°06'1 0.7
2015-Aug-21 17:33N 29°44' W 095°07'1 0.6
2015-Aug-21 16:13N 29°45' W 095°07'0 0.0
2015-Aug-21 15:33N 29°45' W 095°06'0 0.0
2015-Aug-21 14:33N 29°45' W 095°06'2 0.1
2015-Aug-21 01:12N 29°44' W 095°08'1 1.2
2015-Aug-21 00:32N 29°44' W 095°07'1 0.9
2015-Aug-20 23:31N 29°45' W 095°06'0 0.0
2015-Aug-20 22:34N 29°45' W 095°07'0 0.0
2015-Aug-20 21:12N 29°45' W 095°06'1 0.7
2015-Aug-20 19:11N 29°44' W 095°08'1 2.3
2015-Aug-20 18:33N 29°45' W 095°07'0 0.0
2015-Aug-20 14:33N 29°45' W 095°06'1 0.1
2015-Aug-20 02:17N 29°44' W 095°08'0 0.0
2015-Aug-19 19:32N 29°44' W 095°07'1 0.4
2015-Aug-19 16:08N 29°45' W 095°06'0 0.7
2015-Aug-19 15:28N 29°45' W 095°07'  
Track history (hours):
 
Tides and Currents Weather Stations Pressure Air Temp Water Temp Dewpoint Dewpoint Depression Visibility Wind Speed Wind Dir Waves Ship Positions

Aransas Pass

Owner: Higman Barge Lines, Inc., Orange, TX. More information available from US FCC via Universal Licensing System and Coast Guard Vessel Documentation Center.

Last reported at 2015-Aug-29 11:32 UTC. Time now 2015-Aug-30 01:37 UTC.
Position N 29°57' W 090°23'.

Length 26 m; draft 3 m.

Type: Towing. MMSI: 367458930.

Date/timePositionNaut miles runAvg speedWind from/ knotsBaromVisibWave heightAir tempDewpointWater temp
2015-Aug-29 11:32N 29°57' W 090°23'0 0.0
2015-Aug-29 10:33N 29°57' W 090°23'0 0.0
2015-Aug-29 08:07N 29°57' W 090°23'  
2015-Aug-26 19:30N 29°55' W 090°08'4 4.6
2015-Aug-26 18:32N 29°57' W 090°04'5 0.7
2015-Aug-26 11:29N 29°54' W 089°59'0 0.0
2015-Aug-26 09:16N 29°54' W 089°59'0 0.0
2015-Aug-26 08:20N 29°54' W 089°59'0 0.0
2015-Aug-26 06:33N 29°54' W 089°59'0 0.0
2015-Aug-26 05:17N 29°54' W 089°59'34 2.2
2015-Aug-25 13:33N 29°34' W 090°30'5 4.9
2015-Aug-25 12:33N 29°35' W 090°36'5 4.9
2015-Aug-25 11:33N 29°36' W 090°41'3 3.1
2015-Aug-25 10:34N 29°34' W 090°43'2 1.5
2015-Aug-25 09:33N 29°33' W 090°45'0 0.3
2015-Aug-25 08:33N 29°33' W 090°45'2 2.0
2015-Aug-25 07:33N 29°32' W 090°47'6 5.6
2015-Aug-25 06:32N 29°33' W 090°54'  
2015-Aug-21 22:31N 29°30' W 094°53'7 7.0
2015-Aug-21 21:33N 29°36' W 094°57'7 6.8
2015-Aug-21 20:33N 29°42' W 095°01'5 4.8
2015-Aug-21 19:25N 29°45' W 095°06'1 0.7
2015-Aug-21 17:33N 29°44' W 095°07'1 0.6
2015-Aug-21 16:13N 29°45' W 095°07'0 0.0
2015-Aug-21 15:33N 29°45' W 095°06'0 0.0
2015-Aug-21 14:33N 29°45' W 095°06'2 0.1
2015-Aug-21 01:12N 29°44' W 095°08'1 1.2
2015-Aug-21 00:32N 29°44' W 095°07'1 0.9
2015-Aug-20 23:31N 29°45' W 095°06'0 0.0
2015-Aug-20 22:34N 29°45' W 095°07'0 0.0
2015-Aug-20 21:12N 29°45' W 095°06'1 0.7
2015-Aug-20 19:11N 29°44' W 095°08'1 2.3
2015-Aug-20 18:33N 29°45' W 095°07'0 0.0
2015-Aug-20 14:33N 29°45' W 095°06'1 0.1
2015-Aug-20 02:17N 29°44' W 095°08'0 0.0
2015-Aug-19 19:32N 29°44' W 095°07'1 0.4
2015-Aug-19 16:08N 29°45' W 095°06'0 0.7
2015-Aug-19 15:28N 29°45' W 095°07'  

Dump ship's entire track history